createdAt,value
2023-09-04T00:02:26.238Z,102774.44
2023-09-04T00:04:53.264Z,102774.94
2023-09-04T00:07:20.525Z,102769.50
2023-09-04T00:09:47.129Z,102775.63
2023-09-04T00:12:13.637Z,102772.44
2023-09-04T00:14:40.330Z,102767.94
2023-09-04T00:17:07.122Z,102766.34
2023-09-04T00:19:35.304Z,102770.53
2023-09-04T00:22:01.789Z,102769.88
2023-09-04T00:24:28.363Z,102762.50
2023-09-04T00:26:54.878Z,102771.66
2023-09-04T00:29:21.402Z,102762.34
2023-09-04T00:31:47.948Z,102771.97
2023-09-04T00:34:14.523Z,102773.22
2023-09-04T00:36:41.171Z,102773.38
2023-09-04T00:39:07.842Z,102775.78
2023-09-04T00:41:34.438Z,102773.53
2023-09-04T00:44:00.968Z,102770.63
2023-09-04T00:46:27.866Z,102761.84
2023-09-04T00:48:54.984Z,102766.97
2023-09-04T00:51:21.543Z,102765.38
2023-09-04T00:53:49.352Z,102769.69
2023-09-04T00:56:17.497Z,102764.72
2023-09-04T00:58:44.719Z,102759.75
2023-09-04T01:01:11.985Z,102762.34
2023-09-04T01:03:38.646Z,102762.69
2023-09-04T01:06:05.647Z,102763.31
2023-09-04T01:08:32.215Z,102763.66
2023-09-04T01:11:27.372Z,102759.34
2023-09-04T01:13:55.649Z,102764.16
2023-09-04T01:16:23.268Z,102760.63
2023-09-04T01:18:50.556Z,102756.91
2023-09-04T01:21:17.447Z,102759.34
2023-09-04T01:23:44.450Z,102759.53
2023-09-04T01:26:36.973Z,102763.19
2023-09-04T01:29:19.782Z,102764.97
2023-09-04T01:31:57.479Z,102761.75
2023-09-04T01:34:30.870Z,102760.47
2023-09-04T01:36:58.734Z,102759.69
2023-09-04T01:39:26.763Z,102761.59
2023-09-04T01:41:53.315Z,102765.47
2023-09-04T01:44:20.624Z,102762.09
2023-09-04T01:46:47.257Z,102762.25
2023-09-04T01:49:13.859Z,102758.88
2023-09-04T01:51:40.561Z,102758.09
2023-09-04T01:54:07.144Z,102755.84
2023-09-04T01:56:33.992Z,102760.66
2023-09-04T01:59:00.631Z,102752.63
2023-09-04T02:01:27.276Z,102747.97
2023-09-04T02:03:57.744Z,102752.78
2023-09-04T02:06:28.902Z,102751.97
2023-09-04T02:08:55.432Z,102752.78
2023-09-04T02:11:21.977Z,102756.81
2023-09-04T02:13:48.994Z,102759.69
2023-09-04T02:16:15.674Z,102752.78
2023-09-04T02:18:42.963Z,102760.66
2023-09-04T02:21:09.776Z,102751.97
2023-09-04T02:23:36.476Z,102753.56
2023-09-04T02:26:03.798Z,102756.63
2023-09-04T02:28:31.728Z,102747.81
2023-09-04T02:30:58.410Z,102750.56
2023-09-04T02:33:24.914Z,102746.22
2023-09-04T02:35:53.125Z,102748.44
2023-09-04T02:38:20.427Z,102751.50
2023-09-04T02:40:46.954Z,102745.56
2023-09-04T02:43:13.477Z,102741.56
2023-09-04T02:45:41.152Z,102740.91
2023-09-04T02:48:07.811Z,102741.06
2023-09-04T02:50:35.357Z,102737.38
2023-09-04T02:53:01.893Z,102732.88
2023-09-04T02:55:28.501Z,102733.03
2023-09-04T02:57:55.075Z,102733.53
2023-09-04T03:00:21.613Z,102731.13
2023-09-04T03:02:48.166Z,102730.78
2023-09-04T03:05:14.827Z,102724.69
2023-09-04T03:07:41.294Z,102716.03
2023-09-04T03:10:08.137Z,102720.03
2023-09-04T03:12:34.911Z,102716.69
2023-09-04T03:15:06.730Z,102720.22
2023-09-04T03:17:35.232Z,102714.09
2023-09-04T03:20:05.786Z,102712.03
2023-09-04T03:22:32.404Z,102708.50
2023-09-04T03:24:58.915Z,102710.44
2023-09-04T03:27:26.849Z,102704.00
2023-09-04T03:29:53.641Z,102702.72
2023-09-04T03:32:20.184Z,102697.25
2023-09-04T03:34:46.799Z,102688.41
2023-09-04T03:37:13.595Z,102692.13
2023-09-04T03:39:40.160Z,102690.84
2023-09-04T03:42:07.633Z,102686.66
2023-09-04T03:44:34.350Z,102696.59
2023-09-04T03:47:00.896Z,102680.41
2023-09-04T03:49:27.450Z,102684.06
2023-09-04T03:51:54.155Z,102677.81
2023-09-04T03:54:20.759Z,102675.56
2023-09-04T03:56:47.257Z,102675.75
2023-09-04T03:59:13.772Z,102664.97
2023-09-04T04:01:41.132Z,102661.13
2023-09-04T04:04:12.163Z,102667.72
2023-09-04T04:06:39.026Z,102662.44
2023-09-04T04:09:07.957Z,102670.09
2023-09-04T04:11:38.268Z,102665.63
2023-09-04T04:14:04.951Z,102659.97
2023-09-04T04:16:38.354Z,102665.09
2023-09-04T04:19:05.579Z,102670.66
2023-09-04T04:21:32.331Z,102667.16
2023-09-04T04:23:58.946Z,102658.84
2023-09-04T04:26:25.914Z,102667.31
2023-09-04T04:28:52.400Z,102663.31
2023-09-04T04:31:18.971Z,102666.53
2023-09-04T04:33:45.800Z,102674.69
2023-09-04T04:36:12.538Z,102674.38
2023-09-04T04:38:39.021Z,102679.13
2023-09-04T04:41:05.606Z,102669.19
2023-09-04T04:43:33.067Z,102676.34
2023-09-04T04:45:59.676Z,102676.06
2023-09-04T04:48:26.512Z,102666.63
2023-09-04T04:50:55.942Z,102665.19
2023-09-04T04:53:23.231Z,102661.03
2023-09-04T04:55:49.729Z,102666.81
2023-09-04T04:58:16.265Z,102677.53
2023-09-04T05:00:42.756Z,102664.41
2023-09-04T05:03:10.213Z,102670.84
2023-09-04T05:05:36.789Z,102662.63
2023-09-04T05:08:03.528Z,102658.59
2023-09-04T05:10:30.709Z,102671.94
2023-09-04T05:12:57.237Z,102664.22
2023-09-04T05:15:23.776Z,102661.94
2023-09-04T05:17:50.294Z,102654.69
2023-09-04T05:20:17.169Z,102652.16
2023-09-04T05:22:43.671Z,102661.28
2023-09-04T05:25:10.653Z,102654.75
2023-09-04T05:27:37.164Z,102656.53
2023-09-04T05:30:04.338Z,102669.19
2023-09-04T05:32:30.883Z,102680.41
2023-09-04T05:34:57.891Z,102676.78
2023-09-04T05:37:24.387Z,102679.91
2023-09-04T05:39:51.031Z,102685.66
2023-09-04T05:42:17.711Z,102674.28
2023-09-04T05:44:44.238Z,102668.19
2023-09-04T05:47:10.798Z,102673.78
2023-09-04T05:49:37.805Z,102671.53
2023-09-04T05:52:04.689Z,102670.94
2023-09-04T05:54:31.227Z,102668.53
2023-09-04T05:56:57.763Z,102672.88
2023-09-04T05:59:24.833Z,102672.72
2023-09-04T06:01:51.408Z,102678.97
2023-09-04T06:04:17.945Z,102680.25
2023-09-04T06:06:44.437Z,102676.25
2023-09-04T06:09:11.012Z,102674.78
2023-09-04T06:11:37.544Z,102679.44
2023-09-04T06:14:04.214Z,102683.63
2023-09-04T06:16:30.818Z,102682.16
2023-09-04T06:18:57.404Z,102683.75
2023-09-04T06:21:24.257Z,102690.50
2023-09-04T06:23:51.355Z,102689.19
2023-09-04T06:26:17.886Z,102692.06
2023-09-04T06:28:44.541Z,102699.75
2023-09-04T06:31:11.381Z,102698.47
2023-09-04T06:33:39.230Z,102694.44
2023-09-04T06:36:06.430Z,102691.84
2023-09-04T06:38:33.128Z,102701.94
2023-09-04T06:40:59.691Z,102686.16
2023-09-04T06:43:28.464Z,102685.50
2023-09-04T06:45:55.192Z,102687.06
2023-09-04T06:48:22.194Z,102685.09
2023-09-04T06:50:50.940Z,102686.47
2023-09-04T06:53:17.676Z,102683.00
2023-09-04T06:55:44.941Z,102684.22
2023-09-04T06:58:11.528Z,102676.09
2023-09-04T07:00:38.313Z,102672.97
2023-09-04T07:03:06.247Z,102669.50
2023-09-04T07:05:33.383Z,102671.16
2023-09-04T07:07:59.974Z,102675.88
2023-09-04T07:10:26.594Z,102668.72
2023-09-04T07:12:53.861Z,102664.75
2023-09-04T07:15:20.474Z,102664.00
2023-09-04T07:17:47.124Z,102662.44
2023-09-04T07:20:13.937Z,102667.81
2023-09-04T07:22:40.453Z,102672.50
2023-09-04T07:25:07.814Z,102672.53
2023-09-04T07:27:34.433Z,102660.91
2023-09-04T07:30:01.170Z,102668.44
2023-09-04T07:32:27.766Z,102673.53
2023-09-04T07:34:57.376Z,102677.88
2023-09-04T07:37:28.182Z,102672.72
2023-09-04T07:39:55.393Z,102683.31
2023-09-04T07:42:25.964Z,102675.41
2023-09-04T07:44:52.545Z,102670.31
2023-09-04T07:47:19.046Z,102669.94
2023-09-04T07:49:45.572Z,102673.41
2023-09-04T07:52:12.086Z,102669.38
2023-09-04T07:54:38.765Z,102666.56
2023-09-04T07:57:05.511Z,102657.00
2023-09-04T07:59:32.603Z,102661.28
2023-09-04T08:02:00.152Z,102663.56
2023-09-04T08:04:26.831Z,102663.84
2023-09-04T08:06:53.421Z,102665.34
2023-09-04T08:09:19.934Z,102675.81
2023-09-04T08:11:46.525Z,102672.50
2023-09-04T08:14:13.116Z,102676.75
2023-09-04T08:16:39.670Z,102674.22
2023-09-04T08:19:09.147Z,102677.13
2023-09-04T08:21:36.164Z,102678.06
2023-09-04T08:24:02.860Z,102662.50
2023-09-04T08:26:30.856Z,102662.75
2023-09-04T08:28:57.729Z,102661.81
2023-09-04T08:31:24.474Z,102659.25
2023-09-04T08:33:51.086Z,102658.28
2023-09-04T08:36:17.610Z,102660.91
2023-09-04T08:38:44.372Z,102667.38
2023-09-04T08:41:16.575Z,102670.28
2023-09-04T08:43:45.884Z,102666.97
2023-09-04T08:46:16.502Z,102663.19
2023-09-04T08:48:45.410Z,102665.44
2023-09-04T08:51:12.621Z,102660.91
2023-09-04T08:53:39.505Z,102657.81
2023-09-04T08:56:06.210Z,102657.28
2023-09-04T08:58:33.169Z,102655.44
2023-09-04T09:01:00.279Z,102650.75
2023-09-04T09:03:27.343Z,102656.44
2023-09-04T09:05:57.314Z,102643.56
2023-09-04T09:08:25.079Z,102641.63
2023-09-04T09:10:52.831Z,102644.94
2023-09-04T09:13:20.500Z,102646.25
2023-09-04T09:15:47.152Z,102644.00
2023-09-04T09:18:34.248Z,102636.16
2023-09-04T09:21:00.791Z,102630.69
2023-09-04T09:23:27.368Z,102638.28
2023-09-04T09:28:23.392Z,102637.69
2023-09-04T09:30:51.487Z,102635.72
2023-09-04T09:33:21.756Z,102643.75
2023-09-04T09:35:48.307Z,102637.44
2023-09-04T09:38:15.037Z,102648.56
2023-09-04T09:40:41.549Z,102646.56
2023-09-04T09:43:08.320Z,102644.94
2023-09-04T09:45:36.505Z,102646.19
2023-09-04T09:48:12.551Z,102644.19
2023-09-04T09:50:41.812Z,102648.56
2023-09-04T09:53:08.469Z,102643.81
2023-09-04T09:55:36.081Z,102643.03
2023-09-04T09:58:03.128Z,102644.16
2023-09-04T10:00:30.461Z,102634.28
2023-09-04T10:02:58.369Z,102624.78
2023-09-04T10:05:26.259Z,102627.59
2023-09-04T10:08:03.679Z,102608.25
2023-09-04T10:10:37.015Z,102609.00
2023-09-04T10:13:09.627Z,102604.66
2023-09-04T10:15:38.100Z,102611.38
2023-09-04T10:18:28.144Z,102597.53
2023-09-04T10:20:56.321Z,102601.47
2023-09-04T10:23:25.804Z,102601.09
2023-09-04T10:26:27.439Z,102590.50
2023-09-04T10:29:06.804Z,102590.09
2023-09-04T10:31:36.216Z,102588.50
2023-09-04T10:34:03.970Z,102594.06
2023-09-04T10:36:31.762Z,102594.50
2023-09-04T10:39:02.881Z,102592.94
2023-09-04T10:41:32.394Z,102602.50
2023-09-04T10:43:59.232Z,102597.75
2023-09-04T10:46:25.923Z,102587.47
2023-09-04T10:48:54.354Z,102587.50
2023-09-04T10:51:33.106Z,102586.75
2023-09-04T10:54:24.274Z,102575.75
2023-09-04T10:57:06.980Z,102578.91
2023-09-04T10:59:59.336Z,102564.72
2023-09-04T11:02:34.813Z,102565.16
2023-09-04T11:05:03.058Z,102569.53
2023-09-04T11:07:30.524Z,102566.41
2023-09-04T11:10:03.820Z,102560.09
2023-09-04T11:12:34.268Z,102562.47
2023-09-04T11:15:01.803Z,102562.06
2023-09-04T11:17:30.778Z,102555.00
2023-09-04T11:19:58.951Z,102555.03
2023-09-04T11:22:26.421Z,102541.97
2023-09-04T11:24:56.814Z,102546.38
2023-09-04T11:27:24.589Z,102545.56
2023-09-04T11:29:52.165Z,102536.88
2023-09-04T11:32:19.975Z,102540.44
2023-09-04T11:34:47.403Z,102540.03
2023-09-04T11:37:14.446Z,102540.88
2023-09-04T11:40:00.971Z,102538.88
2023-09-04T11:42:31.720Z,102542.84
2023-09-04T11:44:58.289Z,102543.63
2023-09-04T11:47:25.593Z,102539.72
2023-09-04T11:49:52.186Z,102544.47
2023-09-04T11:52:23.840Z,102542.47
2023-09-04T11:54:53.538Z,102538.56
2023-09-04T11:57:20.401Z,102520.72
2023-09-04T11:59:46.962Z,102524.72
2023-09-04T12:02:13.915Z,102528.66
2023-09-04T12:04:41.540Z,102525.88
2023-09-04T12:07:13.037Z,102524.34
2023-09-04T12:09:39.766Z,102520.78
2023-09-04T12:12:06.584Z,102507.72
2023-09-04T12:14:33.546Z,102520.06
2023-09-04T12:17:00.708Z,102511.34
2023-09-04T12:19:28.101Z,102510.56
2023-09-04T12:21:54.760Z,102508.97
2023-09-04T12:24:22.460Z,102506.59
2023-09-04T12:26:51.039Z,102503.84
2023-09-04T12:29:19.856Z,102497.91
2023-09-04T12:31:50.007Z,102505.81
2023-09-04T12:34:16.919Z,102508.22
2023-09-04T12:36:43.579Z,102495.53
2023-09-04T12:39:10.095Z,102499.09
2023-09-04T12:41:37.794Z,102493.53
2023-09-04T12:44:05.149Z,102495.94
2023-09-04T12:46:31.624Z,102495.50
2023-09-04T12:48:58.228Z,102478.47
2023-09-04T12:51:26.409Z,102478.88
2023-09-04T12:53:53.009Z,102473.72
2023-09-04T12:56:19.763Z,102481.22
2023-09-04T12:58:46.318Z,102464.91
2023-09-04T13:01:12.980Z,102461.63
2023-09-04T13:03:39.704Z,102457.63
2023-09-04T13:06:07.017Z,102458.06
2023-09-04T13:08:33.643Z,102456.13
2023-09-04T13:11:00.333Z,102462.06
2023-09-04T13:13:27.347Z,102448.94
2023-09-04T13:15:54.098Z,102447.31
2023-09-04T13:18:20.605Z,102452.03
2023-09-04T13:20:47.164Z,102450.41
2023-09-04T13:23:13.852Z,102443.63
2023-09-04T13:25:40.710Z,102437.16
2023-09-04T13:28:07.291Z,102434.25
2023-09-04T13:30:34.187Z,102434.25
2023-09-04T13:33:00.755Z,102423.16
2023-09-04T13:35:27.579Z,102425.53
2023-09-04T13:37:54.119Z,102412.00
2023-09-04T13:40:20.780Z,102418.72
2023-09-04T13:42:47.301Z,102410.44
2023-09-04T13:45:13.907Z,102399.31
2023-09-04T13:47:40.440Z,102403.31
2023-09-04T13:50:07.482Z,102406.13
2023-09-04T13:52:34.047Z,102395.44
2023-09-04T13:55:00.758Z,102401.00
2023-09-04T13:57:27.249Z,102393.09
2023-09-04T13:59:53.796Z,102387.94
2023-09-04T14:02:20.534Z,102392.34
2023-09-04T14:04:47.232Z,102385.19
2023-09-04T14:07:14.081Z,102384.44
2023-09-04T14:09:40.770Z,102388.06
2023-09-04T14:12:08.909Z,102376.19
2023-09-04T14:14:35.523Z,102387.28
2023-09-04T14:17:02.089Z,102380.56
2023-09-04T14:19:28.628Z,102381.00
2023-09-04T14:21:55.261Z,102378.22
2023-09-04T14:24:22.116Z,102375.88
2023-09-04T14:26:48.865Z,102375.88
2023-09-04T14:29:15.483Z,102378.63
2023-09-04T14:31:42.388Z,102371.09
2023-09-04T14:34:09.053Z,102370.25
2023-09-04T14:36:35.931Z,102371.06
2023-09-04T14:39:02.692Z,102373.03
2023-09-04T14:41:33.249Z,102368.22
2023-09-04T14:44:00.220Z,102371.78
2023-09-04T14:46:27.564Z,102369.78
2023-09-04T14:48:55.469Z,102368.56
2023-09-04T14:51:23.110Z,102356.56
2023-09-04T14:53:54.429Z,102361.72
2023-09-04T14:56:21.909Z,102358.97
2023-09-04T14:58:49.195Z,102357.00
2023-09-04T15:01:17.617Z,102354.28
2023-09-04T15:03:46.397Z,102354.28
2023-09-04T15:06:13.912Z,102347.53
2023-09-04T15:08:41.153Z,102351.94
2023-09-04T15:11:14.342Z,102343.22
2023-09-04T15:13:43.673Z,102342.03
2023-09-04T15:16:10.797Z,102336.47
2023-09-04T15:18:37.651Z,102335.22
2023-09-04T15:21:07.060Z,102334.41
2023-09-04T15:23:33.775Z,102324.88
2023-09-04T15:26:00.320Z,102312.19
2023-09-04T15:28:28.655Z,102312.56
2023-09-04T15:30:58.719Z,102304.97
2023-09-04T15:33:29.570Z,102309.75
2023-09-04T15:36:00.750Z,102313.72
2023-09-04T15:38:27.392Z,102318.47
2023-09-04T15:40:55.293Z,102314.94
2023-09-04T15:43:22.114Z,102309.84
2023-09-04T15:45:49.551Z,102303.50
2023-09-04T15:48:17.447Z,102307.53
2023-09-04T15:50:44.462Z,102304.81
2023-09-04T15:53:11.070Z,102294.13
2023-09-04T15:55:37.619Z,102305.22
2023-09-04T15:58:04.387Z,102298.47
2023-09-04T16:00:31.027Z,102296.91
2023-09-04T16:02:57.563Z,102296.94
2023-09-04T16:05:24.313Z,102300.09
2023-09-04T16:07:50.818Z,102294.94
2023-09-04T16:10:17.461Z,102295.03
2023-09-04T16:12:44.034Z,102293.47
2023-09-04T16:15:10.768Z,102292.72
2023-09-04T16:17:37.365Z,102292.72
2023-09-04T16:20:04.963Z,102301.00
2023-09-04T16:22:31.533Z,102295.84
2023-09-04T16:24:58.935Z,102290.72
2023-09-04T16:27:28.849Z,102289.56
2023-09-04T16:29:55.392Z,102293.16
2023-09-04T16:32:21.970Z,102285.22
2023-09-04T16:34:48.766Z,102277.31
2023-09-04T16:37:20.064Z,102269.41
2023-09-04T16:39:50.044Z,102263.88
2023-09-04T16:42:16.972Z,102267.81
2023-09-04T16:44:44.832Z,102272.16
2023-09-04T16:47:11.494Z,102271.00
2023-09-04T16:49:38.082Z,102273.78
2023-09-04T16:52:04.979Z,102278.56
2023-09-04T16:54:31.523Z,102282.53
2023-09-04T16:56:58.110Z,102283.31
2023-09-04T16:59:24.681Z,102274.66
2023-09-04T17:01:51.438Z,102271.91
2023-09-04T17:04:18.168Z,102271.97
2023-09-04T17:06:45.074Z,102268.03
2023-09-04T17:09:11.829Z,102269.63
2023-09-04T17:11:38.372Z,102272.06
2023-09-04T17:14:04.949Z,102268.88
2023-09-04T17:16:31.512Z,102268.09
2023-09-04T17:18:58.560Z,102264.16
2023-09-04T17:21:25.193Z,102264.56
2023-09-04T17:23:52.565Z,102261.44
2023-09-04T17:26:19.629Z,102261.06
2023-09-04T17:28:46.198Z,102253.94
2023-09-04T17:31:12.875Z,102253.22
2023-09-04T17:33:39.444Z,102256.75
2023-09-04T17:36:08.294Z,102265.88
2023-09-04T17:38:36.764Z,102260.38
2023-09-04T17:41:05.236Z,102257.59
2023-09-04T17:43:31.982Z,102258.84
2023-09-04T17:45:58.639Z,102260.44
2023-09-04T17:48:25.703Z,102250.88
2023-09-04T17:50:53.619Z,102253.31
2023-09-04T17:53:20.420Z,102260.84
2023-09-04T17:55:47.285Z,102256.50
2023-09-04T17:58:13.795Z,102250.22
2023-09-04T18:00:43.187Z,102248.63
2023-09-04T18:03:09.848Z,102241.09
2023-09-04T18:05:36.587Z,102238.75
2023-09-04T18:08:03.526Z,102234.41
2023-09-04T18:10:30.460Z,102224.91
2023-09-04T18:12:57.155Z,102217.00
2023-09-04T18:15:23.935Z,102213.81
2023-09-04T18:17:51.193Z,102213.81
2023-09-04T18:20:18.103Z,102214.59
2023-09-04T18:22:47.545Z,102216.19
2023-09-04T18:25:16.201Z,102202.75
2023-09-04T18:27:44.402Z,102196.44
2023-09-04T18:30:13.039Z,102201.16
2023-09-04T18:32:39.660Z,102187.31
2023-09-04T18:35:07.501Z,102182.19
2023-09-04T18:37:34.114Z,102177.44
2023-09-04T18:40:00.712Z,102175.84
2023-09-04T18:42:27.688Z,102166.34
2023-09-04T18:44:54.241Z,102165.19
2023-09-04T18:47:20.932Z,102157.63
2023-09-04T18:49:53.876Z,102154.84
2023-09-04T18:52:21.227Z,102171.41
2023-09-04T18:54:48.555Z,102171.78
2023-09-04T18:57:18.245Z,102170.97
2023-09-04T18:59:44.892Z,102167.03
2023-09-04T19:02:11.640Z,102170.97
2023-09-04T19:04:38.242Z,102163.88
2023-09-04T19:07:05.094Z,102166.19
2023-09-04T19:09:33.193Z,102157.91
2023-09-04T19:12:00.151Z,102151.22
2023-09-04T19:14:26.954Z,102155.16
2023-09-04T19:16:53.501Z,102146.84
2023-09-04T19:19:20.071Z,102145.63
2023-09-04T19:21:46.644Z,102149.56
2023-09-04T19:24:13.205Z,102141.28
2023-09-04T19:26:39.803Z,102158.25
2023-09-04T19:29:06.743Z,102157.84
2023-09-04T19:31:33.488Z,102171.25
2023-09-04T19:34:00.008Z,102172.78
2023-09-04T19:36:28.442Z,102166.47
2023-09-04T19:38:55.080Z,102164.09
2023-09-04T19:41:22.496Z,102154.25
2023-09-04T19:43:49.507Z,102156.56
2023-09-04T19:46:16.331Z,102150.19
2023-09-04T19:48:43.080Z,102147.03
2023-09-04T19:51:09.673Z,102155.66
2023-09-04T19:53:36.214Z,102150.94
2023-09-04T19:56:03.753Z,102158.03
2023-09-04T19:58:31.050Z,102156.00
2023-09-04T20:00:58.004Z,102153.25
2023-09-04T20:03:24.656Z,102146.09
2023-09-04T20:05:51.242Z,102146.09
2023-09-04T20:08:17.807Z,102142.94
2023-09-04T20:10:44.406Z,102145.31
2023-09-04T20:13:11.016Z,102138.63
2023-09-04T20:15:37.585Z,102141.34
2023-09-04T20:18:04.545Z,102148.41
2023-09-04T20:20:31.125Z,102137.72
2023-09-04T20:22:57.696Z,102134.53
2023-09-04T20:25:24.316Z,102142.44
2023-09-04T20:27:50.892Z,102135.28
2023-09-04T20:30:18.994Z,102138.31
2023-09-04T20:32:45.694Z,102139.31
2023-09-04T20:35:12.387Z,102142.75
2023-09-04T20:37:39.046Z,102132.91
2023-09-04T20:40:06.131Z,102122.66
2023-09-04T20:42:32.713Z,102124.50
2023-09-04T20:44:59.375Z,102122.06
2023-09-04T20:47:26.135Z,102124.38
2023-09-04T20:49:52.742Z,102123.53
2023-09-04T20:52:19.283Z,102123.88
2023-09-04T20:54:45.850Z,102122.66
2023-09-04T20:57:12.447Z,102120.25
2023-09-04T20:59:39.017Z,102117.03
2023-09-04T21:02:07.218Z,102123.34
2023-09-04T21:04:33.745Z,102120.16
2023-09-04T21:07:09.058Z,102109.47
2023-09-04T21:09:35.918Z,102113.31
2023-09-04T21:12:21.125Z,102114.50
2023-09-04T21:15:06.035Z,102099.94
2023-09-04T21:17:51.105Z,102099.81
2023-09-04T21:20:36.340Z,102086.03
2023-09-04T21:23:21.717Z,102098.97
2023-09-04T21:26:10.107Z,102093.81
2023-09-04T21:28:55.471Z,102087.47
2023-09-04T21:31:40.345Z,102094.06
2023-09-04T21:34:25.526Z,102088.06
2023-09-04T21:37:10.379Z,102084.09
2023-09-04T21:39:55.458Z,102081.66
2023-09-04T21:42:40.338Z,102083.59
2023-09-04T21:45:26.001Z,102086.72
2023-09-04T21:48:10.870Z,102088.31
2023-09-04T21:50:55.641Z,102090.69
2023-09-04T21:53:40.379Z,102091.78
2023-09-04T21:56:25.170Z,102100.03
2023-09-04T21:59:09.993Z,102090.16
2023-09-04T22:01:55.181Z,102079.38
2023-09-04T22:04:40.400Z,102084.34
2023-09-04T22:07:25.290Z,102079.97
2023-09-04T22:10:10.137Z,102081.97
2023-09-04T22:12:55.362Z,102077.63
2023-09-04T22:15:40.479Z,102079.63
2023-09-04T22:18:40.286Z,102074.59
2023-09-04T22:21:25.630Z,102073.78
2023-09-04T22:24:10.879Z,102078.53
2023-09-04T22:26:56.797Z,102076.97
2023-09-04T22:29:43.190Z,102084.00
2023-09-04T22:32:29.667Z,102080.81
2023-09-04T22:35:15.864Z,102080.75
2023-09-04T22:38:01.294Z,102076.38
2023-09-04T22:40:46.161Z,102075.38
2023-09-04T22:43:31.040Z,102085.81
2023-09-04T22:46:15.803Z,102092.47
2023-09-04T22:49:00.972Z,102091.91
2023-09-04T22:51:45.812Z,102087.22
2023-09-04T22:54:30.520Z,102090.00
2023-09-04T22:57:15.286Z,102089.59
2023-09-04T23:00:00.332Z,102084.53
2023-09-04T23:02:45.206Z,102074.31
2023-09-04T23:05:30.063Z,102077.84
2023-09-04T23:08:15.382Z,102069.13
2023-09-04T23:11:00.645Z,102079.81
2023-09-04T23:13:46.108Z,102076.75
2023-09-04T23:16:30.968Z,102073.19
2023-09-04T23:19:16.136Z,102077.00
2023-09-04T23:21:42.692Z,102076.28
2023-09-04T23:24:14.812Z,102075.41
2023-09-04T23:26:42.009Z,102073.47
2023-09-04T23:29:17.232Z,102070.81
2023-09-04T23:31:48.929Z,102073.91
2023-09-04T23:34:29.799Z,102066.34
2023-09-04T23:37:14.129Z,102070.66
2023-09-04T23:40:01.211Z,102076.22
2023-09-04T23:42:53.476Z,102063.66
2023-09-04T23:45:20.652Z,102066.75
2023-09-04T23:47:51.934Z,102062.81
2023-09-04T23:50:21.566Z,102054.44
2023-09-04T23:52:52.949Z,102067.31
2023-09-04T23:55:21.007Z,102065.00
2023-09-04T23:57:50.411Z,102060.34
